Tiempo atmosférico en la estación meteorológica de Rascafría, Madrid (1159 m.)



Fecha
DESCASC
Temp. máxima en grados centígrados (hora)
DESCASC
Temp. mínima en grados centígrados (hora)
DESCASC
Temp. media en grados centígrados
DESCASC
Racha de viento máxima en m/sg (hora)
DESCASC
Velocidad máxima media en intervalos de 10 minutos(hora)
DESCASC
Precipitaciones diarias en mm
DESCASC
Precipitaciones de 00:00 a 06:00 en mm
DESCASC
Precipitaciones de 06:00 a 12:00 en mm
DESCASC
Precipitaciones de 12:00 a 18:00 en mm
DESCASC
Precipitaciones de 18:00 a 24:00 en mm
DESCASC
06-07-2020 31.5 (16:50) 10 (06:20) 20.8 5.28 (14:10) 2.5 (13:00) 0 0 0 0 0
05-07-2020 32.2 (17:30) 6.4 (06:20) 19.3 5.83 (14:00) 2.22 (16:20) 0 0 0 0 0
04-07-2020 30 (18:20) 6.3 (06:40) 18.2 5 (14:00) 2.78 (14:10) 0 0 0 0 0
03-07-2020 27.5 (17:50) 7.9 (07:10) 17.7 5.28 (19:00) 2.22 (18:10) 0 0 0 0 0
02-07-2020 27.3 (16:20) 9.7 (00:00) 18.5 8.06 (15:40) 3.89 (12:10) 0 0 0 0 0
01-07-2020 29.3 (16:40) 11.6 (00:00) 20.4 9.17 (16:30) 3.33 (13:10) 0 0 0 0 0
30-06-2020 32.5 (17:30) 10.5 (00:00) 21.5 6.94 (16:00) 2.5 (16:00) 0 0 0 0 0
29-06-2020 31.3 (20:00) 10.4 (00:00) 20.8 7.22 (13:30) 2.78 (13:30) 0 0 0 0 0
28-06-2020 29.3 (18:30) 9.4 (00:00) 19.3 4.44 (14:00) 2.22 (14:10) 0 0 0 0 0
27-06-2020 27.1 (15:10) 10.6 (00:00) 18.9 8.33 (16:40) 3.33 (04:50) 0 0 0 0 0
26-06-2020 27.6 (17:10) 10 (00:00) 18.8 10 (13:40) 3.06 (12:50) 0 0 0 0 0
25-06-2020 28.7 (15:20) 9.1 (00:00) 18.9 11.67 (17:40) 3.89 (17:30) 0 0 0 0 0
24-06-2020 28.1 (17:40) 12 (00:00) 20.1 5 (14:00) 1.94 (14:10) 0 0 0 0 0
23-06-2020 30.2 (18:50) 9.3 (00:00) 19.8 4.72 (21:20) 1.39 (21:40) 0 0 0 0 0
22-06-2020 30 (17:10) 6.8 (00:00) 18.4 3.33 (13:40) 1.67 (14:40) 0 0 0 0 0
21-06-2020 28.4 (17:20) 7.5 (00:00) 17.9 6.94 (15:10) 2.78 (15:10) 0 0 0 0 0
20-06-2020 28.2 (17:00) 6.9 (00:00) 17.6 8.06 (12:50) 3.33 (12:50) 0 0 0 0 0
19-06-2020 25.5 (16:10) 5.3 (00:00) 15.4 7.22 (14:20) 2.5 (16:00) 0 0 0 0 0
18-06-2020 23.9 (17:30) 5.4 (00:00) 14.6 9.17 (12:50) 2.78 (12:50) 0 0 0 0 0
17-06-2020 21.5 (17:30) 5.7 (00:00) 13.6 6.39 (17:50) 3.06 (17:50) 0 0 0 0 0
16-06-2020 20.2 (16:40) 10.8 (00:00) 15.5 11.11 (17:10) 4.17 (17:10) 0.6 0 0 0 0.6
15-06-2020 23.3 (16:10) 8.7 (00:00) 16 7.5 (16:30) 3.33 (16:40) 0 0 0 0 0
14-06-2020 21 (16:50) 4.9 (00:00) 13 7.22 (23:59) 2.78 (16:50) 0 0 0 0 0
13-06-2020 18.7 (17:50) 7.5 (00:00) 13.1 13.33 (02:10) 3.89 (02:30) 0.8 0.8 0 0 0
12-06-2020 15.4 (16:00) 5.8 (00:00) 10.6 15.28 (00:20) 6.67 (00:20) 11.8 0 0 1 10.8
11-06-2020 17.7 (15:50) 9.6 (00:00) 13.7 12.78 (23:59) 6.11 (23:59) 2.2 0 0 0 2.2

Gráficas

Temp. máximas Temp. mínimas Temp. medias Precipitaciones Rachas de viento máximas Velocidades máximas media en intervalos de 10 minutos

Datos horarios

Fecha y hora oficial Temperatura (ºC) Velocidad del viento (km/h) Dirección del viento Racha (km/h) Dirección de racha Precipitación (mm) Presión (hPa) Tendencia (hPa) Humedad (%)
2020-07-10 23:00:00 14.6 2 Oeste 5 Oeste 0 -- -- 76
2020-07-10 22:00:00 17 0 Calma 3 Oeste 0 -- -- 73
2020-07-10 21:00:00 21.3 0 Calma 5 Sur 0 -- -- 65
2020-07-10 20:00:00 25.6 2 Oeste 5 Noroeste 0 -- -- 52
2020-07-10 19:00:00 26.1 4 Oeste 7 Noroeste 0 -- -- 46
2020-07-10 18:00:00 26.2 2 Sudoeste 6 Noroeste 0 -- -- 43
2020-07-10 17:00:00 26.2 0 Calma 10 Nordeste 0 -- -- 43
2020-07-10 16:00:00 27.2 5 Nordeste 12 Sur 0 -- -- 38
2020-07-10 15:00:00 26.7 7 Sudeste 18 Este 0 -- -- 38
2020-07-10 14:00:00 26.1 6 Este 21 Nordeste 0 -- -- 40
2020-07-10 13:00:00 25.1 7 Nordeste 20 Nordeste 0 -- -- 43
2020-07-10 12:00:00 23.3 4 Nordeste 13 Nordeste 0 -- -- 51
2020-07-10 11:00:00 21.2 4 Este 9 Este 0 -- -- 53
2020-07-10 10:00:00 18.5 2 Nordeste 8 Este 0 -- -- 64
2020-07-10 09:00:00 14.7 0 Calma 4 Sudoeste 0 -- -- 79
2020-07-10 08:00:00 9.6 0 Calma 3 Sur 0 -- -- 97
2020-07-10 07:00:00 8.2 0 Calma 4 Sur 0 -- -- 95
2020-07-10 06:00:00 8.8 2 Oeste 5 Oeste 0 -- -- 94
2020-07-10 05:00:00 9.4 2 Oeste 6 Oeste 0 -- -- 93
2020-07-10 04:00:00 10.2 3 Sudoeste 5 Sudoeste 0 -- -- 93
2020-07-10 03:00:00 10.5 0 Calma 6 Oeste 0 -- -- 91
2020-07-10 02:00:00 11.2 0 Calma 8 Sur 0 -- -- 91
2020-07-10 01:00:00 11.8 4 Sur 12 Sur 0 -- -- 91
2020-07-10 00:00:00 12.7 2 Sudoeste 6 Oeste 0 -- -- 90
2020-07-09 23:00:00 14.3 2 Oeste 5 Sudoeste 0 -- -- 85
2020-07-09 22:00:00 15.8 2 Noroeste 8 Noroeste 0 -- -- 78
2020-07-09 21:00:00 17.1 0 Calma 5 Oeste 0 -- -- 77
2020-07-09 20:00:00 20.1 0 Calma 10 Sur 0 -- -- 72
2020-07-09 19:00:00 18.2 2 Sur 13 Sur 0 -- -- 75
2020-07-09 18:00:00 17.2 4 Sudoeste 27 Este 0.6 -- -- 81
2020-07-09 17:00:00 23.4 10 Sudeste 31 Sur 0 -- -- 42
2020-07-09 16:00:00 30.6 6 Sudeste 16 Sudeste 0 -- -- 25
2020-07-09 15:00:00 29.2 7 Sur 24 Sur 0 -- -- 32
2020-07-09 14:00:00 28.8 6 Este 13 Este 0 -- -- 32
2020-07-09 13:00:00 26.5 6 Este 13 Este 0 -- -- 43
2020-07-09 12:00:00 24.4 3 Noroeste 10 Nordeste 0 -- -- 46
2020-07-09 11:00:00 23.3 4 Este 10 Este 0 -- -- 51
2020-07-09 10:00:00 20.9 3 Este 6 Nordeste 0 -- -- 53
2020-07-09 09:00:00 15.3 0 Calma 5 Sur 0 -- -- 85
2020-07-09 08:00:00 10.7 0 Calma 14 Sudeste 0 -- -- 91
2020-07-09 07:00:00 9.7 4 Noroeste 12 Sur 0 -- -- 92
2020-07-09 06:00:00 9.4 0 Calma 6 Sur 0 -- -- 93
2020-07-09 05:00:00 9.7 0 Calma 5 Sur 0 -- -- 91
2020-07-09 04:00:00 10.3 2 Sudoeste 6 Este 0 -- -- 90
2020-07-09 03:00:00 11.2 2 Sudoeste 6 Oeste 0 -- -- 90
2020-07-09 02:00:00 12.3 3 Sudoeste 7 Sur 0 -- -- 90
2020-07-09 01:00:00 13.8 3 Sudoeste 5 Sur 0 -- -- 90
2020-07-09 00:00:00 15.4 2 Sudoeste 7 Sur 0 -- -- 88
2020-07-08 23:00:00 16.8 0 Calma 10 Noroeste 0.2 -- -- 86
2020-07-08 22:00:00 18.2 2 Noroeste 26 Sudeste 0.8 -- -- 81
2020-07-08 21:00:00 24.6 8 Sudeste 27 Sudeste 0 -- -- 38
2020-07-08 20:00:00 21.7 5 Este 20 Sur 0 -- -- 56
2020-07-08 19:00:00 23 3 Sudoeste 17 Sudeste 0 -- -- 56
2020-07-08 18:00:00 28.8 9 Sudeste 31 Sudeste 0 -- -- 30
2020-07-08 17:00:00 31.6 12 Este 30 Este 0 -- -- 28
2020-07-08 16:00:00 30.5 5 Este 14 Este 0 -- -- 34
2020-07-08 15:00:00 26.6 0 Calma 7 Norte 0 -- -- 49
2020-07-08 14:00:00 26.4 3 Este 8 Este 0 -- -- 50
2020-07-08 13:00:00 25.4 2 Este 5 Sudeste 0 -- -- 47
2020-07-08 12:00:00 24.4 2 Oeste 9 Sudeste 0 -- -- 48
2020-07-08 11:00:00 21.6 3 Norte 9 Sur 0 -- -- 66
2020-07-08 10:00:00 16.8 4 Sur 12 Noroeste 0 -- -- 86
2020-07-08 09:00:00 15.5 5 Norte 17 Sur 0.4 -- -- 84
2020-07-08 08:00:00 16.4 5 Noroeste 14 Oeste 0 -- -- 70
2020-07-08 07:00:00 15.5 6 Sur 17 Sudeste 0 -- -- 75
2020-07-08 06:00:00 14.7 2 Sudoeste 7 Sudoeste 0 -- -- 63
2020-07-08 05:00:00 15.2 2 Norte 12 Norte 0 -- -- 60
2020-07-08 04:00:00 14.8 0 Calma 10 Nordeste 0 -- -- 62
2020-07-08 03:00:00 14.2 2 Oeste 5 Oeste 0 -- -- 62
2020-07-08 02:00:00 15.2 2 Sudoeste 5 Sudoeste 0 -- -- 59
2020-07-08 01:00:00 17.3 2 Oeste 9 Sudoeste 0 -- -- 53
2020-07-08 00:00:00 16.2 0 Calma 4 Sudoeste 0 -- -- 58
2020-07-07 23:00:00 18.3 0 Calma 8 Sur 0 -- -- 54
2020-07-07 22:00:00 21.8 4 Sudoeste 8 Oeste 0 -- -- 43
2020-07-07 21:00:00 26 3 Noroeste 17 Oeste 0 -- -- 38
2020-07-07 20:00:00 32 6 Oeste 19 Noroeste 0 -- -- 21
2020-07-07 19:00:00 34 4 Oeste 17 Oeste 0 -- -- 24
2020-07-07 18:00:00 34.1 3 Oeste 13 Sudoeste 0 -- -- 25
2020-07-07 17:00:00 33.8 5 Nordeste 19 Norte 0 -- -- 27
2020-07-07 16:00:00 33.8 7 Sur 18 Sudeste 0 -- -- 26
2020-07-07 15:00:00 32.9 3 Sudeste 23 Sur 0 -- -- 30
2020-07-07 14:00:00 32.1 5 Nordeste 15 Norte 0 -- -- 26
2020-07-07 13:00:00 30.2 5 Este 13 Este 1.8 -- -- 35
2020-07-07 12:00:00 28.6 3 Este 9 Sudeste 0.6 -- -- 43
2020-07-07 11:00:00 26.2 3 Nordeste 6 Sudeste 0 -- -- 44
2020-07-07 10:00:00 23.3 2 Este 5 Sudeste 0 -- -- 53
2020-07-07 09:00:00 19.3 0 Calma 3 Sudoeste 0 -- -- 61
2020-07-07 08:00:00 13.2 0 Calma 4 Sudoeste 0 -- -- 82
2020-07-07 07:00:00 11.1 0 Calma 4 Oeste 0 -- -- 86
2020-07-07 06:00:00 11.7 0 Calma 4 Oeste 0 -- -- 85
2020-07-07 05:00:00 13 0 Calma 5 Sudoeste 0 -- -- 82
2020-07-07 04:00:00 13.4 2 Oeste 5 Oeste 0 -- -- 81
2020-07-07 03:00:00 14 2 Oeste 6 Sudoeste 0 -- -- 81
2020-07-07 02:00:00 14.6 0 Calma 6 Sudoeste 0 -- -- 79
2020-07-07 01:00:00 15.8 0 Calma 5 Oeste 0 -- -- 76
2020-07-07 00:00:00 16.3 2 Sudoeste 5 Sudoeste 0 -- -- 74
2020-07-06 23:00:00 18 3 Oeste 5 Sudoeste 0 -- -- 70
2020-07-06 22:00:00 21.1 4 Oeste 8 Oeste 0 -- -- 60
2020-07-06 21:00:00 25 3 Sudoeste 15 Nordeste 0 -- -- 48
2020-07-06 20:00:00 30.1 3 Noroeste 15 Noroeste 0 -- -- 38
2020-07-06 19:00:00 30.3 5 Norte 17 Nordeste 0 -- -- 37
2020-07-06 18:00:00 31.5 4 Noroeste 16 Norte 0 -- -- 34
2020-07-06 17:00:00 31 6 Norte 19 Nordeste 0 -- -- 35
2020-07-06 16:00:00 29.5 7 Nordeste 16 Nordeste 0 -- -- 37
2020-07-06 15:00:00 30.3 6 Norte 19 Nordeste 0 -- -- 34
2020-07-06 14:00:00 30.2 8 Norte 18 Norte 0 -- -- 34
2020-07-06 13:00:00 29.6 9 Nordeste 19 Nordeste 0 -- -- 35
2020-07-06 12:00:00 28.7 6 Nordeste 16 Norte 0 -- -- 37
2020-07-06 11:00:00 27.4 4 Este 8 Este 0 -- -- 43
2020-07-06 10:00:00 24 0 Calma 4 Este 0 -- -- 52
2020-07-06 09:00:00 19.9 0 Calma 3 Este 0 -- -- 66
2020-07-06 08:00:00 13 0 Calma 5 Sudoeste 0 -- -- 82
2020-07-06 07:00:00 10.2 2 Sudoeste 5 Oeste 0 -- -- 83
2020-07-06 06:00:00 10.3 0 Calma 4 Oeste 0 -- -- 82
2020-07-06 05:00:00 10.8 2 Oeste 4 Sudoeste 0 -- -- 79
2020-07-06 04:00:00 10.8 2 Sudoeste 4 Oeste 0 -- -- 77
2020-07-06 03:00:00 11.9 3 Oeste 5 Oeste 0 -- -- 72
2020-07-06 02:00:00 12.8 0 Calma 4 Oeste 0 -- -- 68
2020-07-06 01:00:00 13.6 4 Sudoeste 5 Oeste 0 -- -- 64
2020-07-06 00:00:00 15.1 2 Sudoeste 5 Sur 0 -- -- 60
2020-07-05 23:00:00 16.8 3 Sudoeste 7 Sudoeste 0 -- -- 53
2020-07-05 22:00:00 19 3 Sudoeste 7 Oeste 0 -- -- 50
2020-07-05 21:00:00 23.2 3 Sudoeste 8 Este 0 -- -- 42
2020-07-05 20:00:00 30.4 0 Calma 10 Noroeste 0 -- -- 30
2020-07-05 19:00:00 31.7 5 Nordeste 14 Nordeste 0 -- -- 24
2020-07-05 18:00:00 31.8 6 Norte 14 Nordeste 0 -- -- 20
2020-07-05 17:00:00 31.8 7 Nordeste 18 Nordeste 0 -- -- 20
2020-07-05 16:00:00 31.6 7 Norte 18 Noroeste 0 -- -- 21
2020-07-05 15:00:00 30.9 5 Norte 19 Oeste 0 -- -- 20
2020-07-05 14:00:00 30 6 Noroeste 21 Oeste 0 -- -- 19
2020-07-05 13:00:00 28.5 5 Este 11 Este 0 -- -- 27
2020-07-05 12:00:00 26.6 4 Este 8 Sudeste 0 -- -- 29
2020-07-05 11:00:00 23.4 2 Nordeste 6 Este 0 -- -- 34
2020-07-05 10:00:00 20.5 3 Sudeste 5 Sudeste 0 -- -- 47
2020-07-05 09:00:00 16.3 0 Calma 3 Sur 0 -- -- 48
2020-07-05 08:00:00 9.9 0 Calma 4 Noroeste 0 -- -- 72
2020-07-05 07:00:00 6.4 3 Sudoeste 4 Sudoeste 0 -- -- 75
2020-07-05 06:00:00 6.6 0 Calma 4 Sudoeste 0 -- -- 75
2020-07-05 05:00:00 7.3 2 Sudoeste 4 Sudoeste 0 -- -- 70
2020-07-05 04:00:00 8.2 2 Sudoeste 4 Sudoeste 0 -- -- 67
2020-07-05 03:00:00 8.7 0 Calma 5 Oeste 0 -- -- 64
2020-07-05 02:00:00 9.4 0 Calma 4 Sudoeste 0 -- -- 64
2020-07-05 01:00:00 10.6 0 Calma 5 Oeste 0 -- -- 57
2020-07-05 00:00:00 12 2 Sudoeste 4 Sudoeste 0 -- -- 56
2020-07-04 23:00:00 14 2 Oeste 7 Sudoeste 0 -- -- 52
2020-07-04 22:00:00 17.2 3 Sudoeste 7 Sur 0 -- -- 45
2020-07-04 21:00:00 22.1 2 Sudeste 11 Noroeste 0 -- -- 31
2020-07-04 20:00:00 29 2 Noroeste 9 Nordeste 0 -- -- 28
2020-07-04 19:00:00 29.6 4 Nordeste 10 Nordeste 0 -- -- 23
2020-07-04 18:00:00 29.7 4 Nordeste 12 Nordeste 0 -- -- 21
2020-07-04 17:00:00 29.5 4 Este 13 Nordeste 0 -- -- 25
2020-07-04 16:00:00 29.1 5 Norte 12 Nordeste 0 -- -- 21
2020-07-04 15:00:00 28.1 7 Norte 18 Norte 0 -- -- 23
2020-07-04 14:00:00 26.7 9 Norte 18 Norte 0 -- -- 26
2020-07-04 13:00:00 26.1 4 Nordeste 14 Este 0 -- -- 31
2020-07-04 12:00:00 24.9 6 Este 14 Este 0 -- -- 32
2020-07-04 11:00:00 22.9 5 Este 11 Este 0 -- -- 35
2020-07-04 10:00:00 19.8 3 Este 6 Sudeste 0 -- -- 48
2020-07-04 09:00:00 15.4 2 Sudeste 4 Sudoeste 0 -- -- 61
2020-07-04 08:00:00 9.1 2 Oeste 5 Sudoeste 0 -- -- 78
2020-07-04 07:00:00 6.3 3 Sudoeste 5 Oeste 0 -- -- 82
2020-07-04 06:00:00 6.8 3 Sudoeste 6 Oeste 0 -- -- 80
2020-07-04 05:00:00 7.5 0 Calma 7 Sudoeste 0 -- -- 76
2020-07-04 04:00:00 8.6 3 Sudoeste 6 Sudoeste 0 -- -- 72
2020-07-04 03:00:00 8.8 3 Nordeste 8 Norte 0 -- -- 71
2020-07-04 02:00:00 9.4 2 Sudoeste 6 Oeste 0 -- -- 70
2020-07-04 01:00:00 10.2 2 Sudoeste 8 Sudoeste 0 -- -- 68
2020-07-04 00:00:00 11.2 3 Sudoeste 8 Sudoeste 0 -- -- 65
2020-07-03 23:00:00 12.9 2 Oeste 6 Sudoeste 0 -- -- 61
2020-07-03 22:00:00 15.7 3 Sudoeste 6 Oeste 0 -- -- 55
2020-07-03 21:00:00 20.8 3 Oeste 14 Oeste 0 -- -- 39
2020-07-03 20:00:00 26.2 5 Noroeste 15 Oeste 0 -- -- 28
2020-07-03 19:00:00 26.9 7 Noroeste 19 Noroeste 0 -- -- 23
2020-07-03 18:00:00 27.4 6 Oeste 17 Oeste 0 -- -- 26
2020-07-03 17:00:00 27.2 7 Noroeste 18 Oeste 0 -- -- 26
2020-07-03 16:00:00 26.7 5 Noroeste 16 Noroeste 0 -- -- 30
2020-07-03 15:00:00 25.8 3 Norte 15 Oeste 0 -- -- 35
2020-07-03 14:00:00 24.9 6 Este 15 Nordeste 0 -- -- 39
2020-07-03 13:00:00 24.2 7 Este 14 Este 0 -- -- 34
2020-07-03 12:00:00 22.8 4 Nordeste 11 Este 0 -- -- 30
2020-07-03 11:00:00 20.9 4 Este 10 Este 0 -- -- 37
2020-07-03 10:00:00 19 3 Este 6 Este 0 -- -- 43
2020-07-03 09:00:00 15.4 0 Calma 4 Este 0 -- -- 57
2020-07-03 08:00:00 10 0 Calma 3 Oeste 0 -- -- 78
2020-07-03 07:00:00 8 0 Calma 6 Sudeste 0 -- -- 81
2020-07-03 06:00:00 8.8 3 Oeste 7 Sudoeste 0 -- -- 79
2020-07-03 05:00:00 9.2 2 Sudoeste 4 Sudoeste 0 -- -- 73
2020-07-03 04:00:00 12.5 3 Sur 17 Oeste 0 -- -- 61
2020-07-03 03:00:00 12.7 2 Oeste 14 Sudoeste 0 -- -- 60
2020-07-03 02:00:00 12.9 0 Calma 9 Sudoeste 0 -- -- 61
2020-07-03 01:00:00 14.4 3 Sur 10 Sur 0 -- -- 52
2020-07-03 00:00:00 15.9 4 Sudoeste 18 Oeste 0 -- -- 50
2020-07-02 23:00:00 18.4 5 Oeste 14 Oeste 0 -- -- 39
2020-07-02 22:00:00 19 4 Oeste 17 Oeste 0 -- -- 45
2020-07-02 21:00:00 20.3 4 Oeste 17 Noroeste 0 -- -- 41
2020-07-02 20:00:00 22.6 4 Noroeste 15 Oeste 0 -- -- 42
2020-07-02 19:00:00 24.1 6 Oeste 28 Oeste 0 -- -- 39
2020-07-02 18:00:00 26.7 7 Oeste 23 Noroeste 0 -- -- 34
2020-07-02 17:00:00 26.6 9 Oeste 23 Oeste 0 -- -- 34
2020-07-02 16:00:00 27 9 Oeste 29 Oeste 0 -- -- 36
2020-07-02 15:00:00 26.4 9 Oeste 22 Oeste 0 -- -- 33
2020-07-02 14:00:00 25.5 7 Noroeste 24 Oeste 0 -- -- 40
2020-07-02 13:00:00 25.1 10 Oeste 27 Oeste 0 -- -- 35
2020-07-02 12:00:00 24.4 12 Oeste 25 Oeste 0 -- -- 35
2020-07-02 11:00:00 24.1 5 Sudoeste 18 Este 0 -- -- 37
2020-07-02 10:00:00 21.6 2 Sudeste 6 Sudeste 0 -- -- 53
2020-07-02 09:00:00 17.4 2 Sudeste 4 Sudeste 0 -- -- 61
2020-07-02 08:00:00 11.6 0 Calma 4 Oeste 0 -- -- 85
2020-07-02 07:00:00 9.9 0 Calma 6 Oeste 0 -- -- 87
2020-07-02 06:00:00 10.5 0 Calma 6 Oeste 0 -- -- 86
2020-07-02 05:00:00 11.9 0 Calma 6 Sur 0 -- -- 82
2020-07-02 04:00:00 14.1 2 Sudoeste 11 Sur 0 -- -- 73
2020-07-02 03:00:00 15.2 2 Sudoeste 14 Sur 0 -- -- 68
2020-07-02 02:00:00 15.5 2 Oeste 10 Sur 0 -- -- 64
2020-07-02 01:00:00 16.6 2 Sudoeste 11 Sur 0 -- -- 57
2020-07-02 00:00:00 17.5 5 Sur 14 Sur 0 -- -- 51
2020-07-01 23:00:00 17.7 0 Calma 6 Noroeste 0 -- -- 54
2020-07-01 22:00:00 21.9 4 Oeste 17 Oeste 0 -- -- 42
2020-07-01 21:00:00 22.9 3 Noroeste 14 Oeste 0 -- -- 42
2020-07-01 20:00:00 26.7 8 Noroeste 19 Oeste 0 -- -- 29
2020-07-01 19:00:00 28.4 8 Noroeste 28 Oeste 0 -- -- 29
2020-07-01 18:00:00 29.2 5 Noroeste 22 Oeste 0 -- -- 26
2020-07-01 17:00:00 27.9 7 Noroeste 33 Oeste 0 -- -- 32
2020-07-01 16:00:00 28.7 8 Noroeste 32 Sudoeste 0 -- -- 33
2020-07-01 15:00:00 28.7 8 Noroeste 26 Oeste 0 -- -- 34
2020-07-01 14:00:00 27.9 10 Oeste 28 Oeste 0 -- -- 40
2020-07-01 13:00:00 27.8 8 Oeste 27 Oeste 0 -- -- 38
2020-07-01 12:00:00 27.3 8 Noroeste 18 Oeste 0 -- -- 34
2020-07-01 11:00:00 26.9 3 Este 8 Sudeste 0 -- -- 40
2020-07-01 10:00:00 24.7 4 Nordeste 8 Sudeste 0 -- -- 51
2020-07-01 09:00:00 20.2 2 Sur 5 Sudeste 0 -- -- 67
2020-07-01 08:00:00 13.7 0 Calma 5 Sudeste 0 -- -- 81
2020-07-01 07:00:00 11.7 2 Oeste 4 Sur 0 -- -- 82
2020-07-01 06:00:00 12.8 0 Calma 6 Sur 0 -- -- 77
2020-07-01 05:00:00 14.4 2 Sudoeste 7 Sur 0 -- -- 71
2020-07-01 04:00:00 17.3 3 Sur 18 Oeste 0 -- -- 60
2020-07-01 03:00:00 19.7 3 Sur 19 Noroeste 0 -- -- 52
2020-07-01 02:00:00 20.7 8 Oeste 19 Oeste 0 -- -- 47
2020-07-01 01:00:00 17.6 5 Oeste 15 Oeste 0 -- -- 57
2020-07-01 00:00:00 15.5 0 Calma 4 Sur 0 -- -- 70
2020-06-30 23:00:00 17.6 3 Sudoeste 5 Sudoeste 0 -- -- 64
2020-06-30 22:00:00 19.4 2 Sudoeste 6 Oeste 0 -- -- 58
2020-06-30 21:00:00 23.7 4 Oeste 15 Noroeste 0 -- -- 43
2020-06-30 20:00:00 25.6 4 Oeste 15 Sudoeste 0 -- -- 44
2020-06-30 19:00:00 27.9 3 Sudoeste 18 Oeste 0 -- -- 35
2020-06-30 18:00:00 31.9 4 Sudoeste 21 Oeste 0 -- -- 26
2020-06-30 17:00:00 32.4 8 Sur 21 Sur 0 -- -- 27
2020-06-30 16:00:00 31.9 9 Sur 25 Sur 0 -- -- 28
2020-06-30 15:00:00 31.4 6 Sur 22 Sur 0 -- -- 33
2020-06-30 14:00:00 29 5 Nordeste 12 Este 0 -- -- 40
2020-06-30 13:00:00 29.5 4 Nordeste 12 Este 0 -- -- 43
2020-06-30 12:00:00 27.6 4 Sudeste 9 Sudeste 0 -- -- 43
2020-06-30 11:00:00 25 3 Este 8 Sudeste 0 -- -- 49
2020-06-30 10:00:00 22.4 2 Este 5 Este 0 -- -- 55
2020-06-30 09:00:00 18.3 0 Calma 3 Nordeste 0 -- -- 67
2020-06-30 08:00:00 12.6 0 Calma 5 Oeste 0 -- -- 89
2020-06-30 07:00:00 10.6 2 Sudoeste 4 Oeste 0 -- -- 91
2020-06-30 06:00:00 10.5 0 Calma 4 Oeste 0 -- -- 90
2020-06-30 05:00:00 11 0 Calma 4 Oeste 0 -- -- 88
2020-06-30 04:00:00 11.3 3 Oeste 5 Sudoeste 0 -- -- 86
2020-06-30 03:00:00 12.1 0 Calma 5 Sudoeste 0 -- -- 83
2020-06-30 02:00:00 13 2 Oeste 4 Sur 0 -- -- 80
2020-06-30 01:00:00 13.8 3 Oeste 4 Oeste 0 -- -- 76
2020-06-30 00:00:00 15.5 0 Calma 6 Sur 0 -- -- 72
2020-06-29 23:00:00 17.6 0 Calma 8 Sudoeste 0 -- -- 68
2020-06-29 22:00:00 20.7 4 Oeste 12 Sudeste 0 -- -- 57
2020-06-29 21:00:00 24.4 2 Sudeste 10 Oeste 0 -- -- 51
2020-06-29 20:00:00 31.3 2 Nordeste 7 Noroeste 0 -- -- 40
2020-06-29 19:00:00 27.5 2 Nordeste 10 Norte 0 -- -- 50
2020-06-29 18:00:00 28.7 3 Nordeste 10 Sudeste 0 -- -- 46
2020-06-29 17:00:00 29.5 4 Sudeste 10 Sudeste 0 -- -- 38
2020-06-29 16:00:00 28.9 5 Este 18 Noroeste 0 -- -- 40
2020-06-29 15:00:00 30.1 4 Sudoeste 15 Noroeste 0 -- -- 37
2020-06-29 14:00:00 29.6 5 Nordeste 26 Este 0 -- -- 34
2020-06-29 13:00:00 29.1 7 Sudeste 15 Sudeste 0 -- -- 36
2020-06-29 12:00:00 27.3 4 Nordeste 12 Nordeste 0 -- -- 44
2020-06-29 11:00:00 24.8 3 Este 9 Nordeste 0 -- -- 53
2020-06-29 10:00:00 22.1 2 Este 5 Este 0 -- -- 62
2020-06-29 09:00:00 18.7 0 Calma 4 Sudeste 0 -- -- 73
2020-06-29 08:00:00 12.6 0 Calma 5 Sudeste 0 -- -- 94
2020-06-29 07:00:00 10.4 0 Calma 5 Sur 0 -- -- 94
2020-06-29 06:00:00 11.1 0 Calma 5 Sudoeste 0 -- -- 92
2020-06-29 05:00:00 11.7 2 Sudoeste 5 Sudoeste 0 -- -- 89
2020-06-29 04:00:00 12.7 0 Calma 6 Oeste 0 -- -- 86
2020-06-29 03:00:00 14 3 Sudoeste 10 Nordeste 0 -- -- 79
2020-06-29 02:00:00 16.4 3 Sudoeste 10 Oeste 0 -- -- 68
2020-06-29 01:00:00 16.2 5 Sur 12 Sudeste 0 -- -- 66
2020-06-29 00:00:00 16.4 5 Sur 12 Noroeste 0 -- -- 66
2020-06-28 23:00:00 16.5 2 Oeste 6 Sur 0 -- -- 69
2020-06-28 22:00:00 18.1 2 Sudoeste 5 Sudoeste 0 -- -- 65
2020-06-28 21:00:00 22.7 0 Calma 8 Oeste 0 -- -- 55
2020-06-28 20:00:00 28.2 4 Noroeste 14 Oeste 0 -- -- 40
2020-06-28 19:00:00 29.2 4 Norte 14 Oeste 0 -- -- 35
2020-06-28 18:00:00 28.9 7 Sudoeste 16 Sudoeste 0 -- -- 37
2020-06-28 17:00:00 26.2 0 Calma 8 Este 0 -- -- 55
2020-06-28 16:00:00 26.2 5 Este 14 Norte 0 -- -- 53
2020-06-28 15:00:00 26 5 Nordeste 14 Noroeste 0 -- -- 48
2020-06-28 14:00:00 26.5 5 Noroeste 16 Noroeste 0 -- -- 48
2020-06-28 13:00:00 27.1 6 Nordeste 15 Sudeste 0 -- -- 44
2020-06-28 12:00:00 26 4 Este 10 Este 0 -- -- 43
2020-06-28 11:00:00 23.3 4 Nordeste 8 Este 0 -- -- 54
2020-06-28 10:00:00 20.6 2 Nordeste 6 Nordeste 0 -- -- 59
2020-06-28 09:00:00 17.4 0 Calma 5 Sur 0 -- -- 71
2020-06-28 08:00:00 11.4 0 Calma 3 Oeste 0 -- -- 94
2020-06-28 07:00:00 9.5 0 Calma 5 Sudoeste 0 -- -- 94
2020-06-28 06:00:00 10.1 2 Sudoeste 4 Oeste 0 -- -- 92
2020-06-28 05:00:00 10.9 0 Calma 4 Oeste 0 -- -- 89
2020-06-28 04:00:00 11.9 3 Sudoeste 4 Sudoeste 0 -- -- 87
2020-06-28 03:00:00 13 0 Calma 7 Sur 0 -- -- 81
2020-06-28 02:00:00 15.3 3 Sur 10 Sur 0 -- -- 73
2020-06-28 01:00:00 16 0 Calma 10 Sudoeste 0 -- -- 70
2020-06-28 00:00:00 17.5 3 Este 15 Oeste 0 -- -- 64
2020-06-27 23:00:00 19.3 4 Oeste 17 Oeste 0 -- -- 58
2020-06-27 22:00:00 20.7 6 Oeste 22 Oeste 0 -- -- 51
2020-06-27 21:00:00 22 5 Oeste 18 Norte 0 -- -- 46
2020-06-27 20:00:00 25.1 8 Noroeste 19 Noroeste 0 -- -- 39
2020-06-27 19:00:00 25.8 8 Noroeste 27 Oeste 0 -- -- 38
2020-06-27 18:00:00 26.3 8 Noroeste 25 Oeste 0 -- -- 36
2020-06-27 17:00:00 26.6 8 Noroeste 30 Sudoeste 0 -- -- 38
2020-06-27 16:00:00 27 9 Oeste 24 Noroeste 0 -- -- 39
2020-06-27 15:00:00 26.9 6 Noroeste 22 Oeste 0 -- -- 40
2020-06-27 14:00:00 25.9 7 Noroeste 21 Oeste 0 -- -- 43
2020-06-27 13:00:00 25.2 8 Sur 18 Sur 0 -- -- 42
2020-06-27 12:00:00 24 5 Sudeste 12 Sudeste 0 -- -- 44
2020-06-27 11:00:00 21.6 4 Nordeste 8 Este 0 -- -- 51
2020-06-27 10:00:00 19.5 3 Este 9 Sudeste 0 -- -- 56
2020-06-27 09:00:00 16.7 0 Calma 5 Sur 0 -- -- 65
2020-06-27 08:00:00 12.5 2 Sur 6 Sur 0 -- -- 81
2020-06-27 07:00:00 10.7 0 Calma 4 Oeste 0 -- -- 85
2020-06-27 06:00:00 13.7 0 Calma 22 Sudoeste 0 -- -- 73
2020-06-27 05:00:00 15.4 7 Oeste 24 Oeste 0 -- -- 67
2020-06-27 04:00:00 15.1 4 Oeste 17 Sur 0 -- -- 67
2020-06-27 03:00:00 15.3 3 Oeste 16 Oeste 0 -- -- 62
2020-06-27 02:00:00 12.6 3 Oeste 8 Sur 0 -- -- 65
2020-06-27 01:00:00 14.4 2 Sur 12 Sudoeste 0 -- -- 58
2020-06-27 00:00:00 15.3 3 Sudoeste 13 Sudeste 0 -- -- 53
2020-06-26 23:00:00 15.3 3 Sudoeste 15 Oeste 0 -- -- 50
2020-06-26 22:00:00 18.4 4 Sudeste 18 Oeste 0 -- -- 43
2020-06-26 21:00:00 20.9 6 Oeste 23 Noroeste 0 -- -- 37
2020-06-26 20:00:00 22.1 7 Noroeste 21 Oeste 0 -- -- 38
2020-06-26 19:00:00 24.1 5 Oeste 21 Sudoeste 0 -- -- 41
2020-06-26 18:00:00 26.2 8 Oeste 31 Oeste 0 -- -- 35
2020-06-26 17:00:00 27.4 7 Sur 18 Sur 0 -- -- 24
2020-06-26 16:00:00 26.7 5 Sur 19 Oeste 0 -- -- 29
2020-06-26 15:00:00 26 8 Sudoeste 24 Oeste 0 -- -- 28
2020-06-26 14:00:00 24.6 6 Sur 36 Sur 0 -- -- 37
2020-06-26 13:00:00 25.7 10 Sur 25 Sudeste 0 -- -- 36
2020-06-26 12:00:00 24.3 6 Sur 15 Sur 0 -- -- 43
2020-06-26 11:00:00 20.5 2 Nordeste 10 Este 0 -- -- 64
2020-06-26 10:00:00 20.5 5 Este 9 Este 0 -- -- 61
2020-06-26 09:00:00 16.7 0 Calma 3 Este 0 -- -- 76
2020-06-26 08:00:00 11.8 0 Calma 4 Oeste 0 -- -- 95
2020-06-26 07:00:00 10 0 Calma 3 Oeste 0 -- -- 95
2020-06-26 06:00:00 10.5 0 Calma 3 Sudoeste 0 -- -- 93
2020-06-26 05:00:00 11 0 Calma 5 Sudoeste 0 -- -- 91
2020-06-26 04:00:00 11.6 0 Calma 5 Oeste 0 -- -- 88
2020-06-26 03:00:00 12.5 0 Calma 4 Sudoeste 0 -- -- 86
2020-06-26 02:00:00 13.8 2 Sudoeste 8 Este 0 -- -- 82
2020-06-26 01:00:00 14.4 2 Sudoeste 5 Oeste 0 -- -- 80
2020-06-26 00:00:00 15.1 0 Calma 7 Oeste 0 -- -- 76
2020-06-25 23:00:00 15.6 2 Sudoeste 8 Sudeste 0 -- -- 77
2020-06-25 22:00:00 17.1 3 Sudoeste 5 Oeste 0 -- -- 75
2020-06-25 21:00:00 20.5 3 Sur 7 Sudoeste 0 -- -- 68
2020-06-25 20:00:00 25 0 Calma 9 Norte 0 -- -- 60
2020-06-25 19:00:00 26.5 2 Noroeste 15 Sudeste 0 -- -- 44
2020-06-25 18:00:00 22.7 8 Sur 42 Oeste 0 -- -- 52
2020-06-25 17:00:00 25 2 Sudoeste 17 Sudoeste 0 -- -- 48
2020-06-25 16:00:00 27.6 4 Sur 24 Sudeste 0 -- -- 40
2020-06-25 15:00:00 27.5 4 Norte 17 Nordeste 0 -- -- 46
2020-06-25 14:00:00 28.2 3 Este 10 Norte 0 -- -- 42
2020-06-25 13:00:00 26.5 5 Este 12 Sudeste 0 -- -- 48
2020-06-25 12:00:00 24.3 3 Nordeste 13 Sudeste 0 -- -- 49
2020-06-25 11:00:00 23.4 4 Este 9 Nordeste 0 -- -- 50
2020-06-25 10:00:00 21.2 2 Este 5 Nordeste 0 -- -- 59
2020-06-25 09:00:00 17.1 0 Calma 3 Oeste 0 -- -- 76
2020-06-25 08:00:00 11.3 0 Calma 4 Oeste 0 -- -- 95
2020-06-25 07:00:00 9.1 0 Calma 4 Oeste 0 -- -- 94
2020-06-25 06:00:00 9.4 0 Calma 4 Oeste 0 -- -- 93
2020-06-25 05:00:00 9.9 0 Calma 6 Sudeste 0 -- -- 92
2020-06-25 04:00:00 10.7 0 Calma 4 Sudoeste 0 -- -- 90
2020-06-25 03:00:00 11.6 0 Calma 4 Sur 0 -- -- 88
2020-06-25 02:00:00 12.8 2 Sudoeste 4 Sur 0 -- -- 85
2020-06-25 01:00:00 13.1 2 Sudoeste 5 Sudoeste 0 -- -- 84
2020-06-25 00:00:00 14.1 0 Calma 4 Oeste 0 -- -- 83
2020-06-24 23:00:00 15.4 0 Calma 4 Oeste 0 -- -- 82
2020-06-24 22:00:00 16.9 0 Calma 5 Oeste 0 -- -- 78
2020-06-24 21:00:00 20.8 3 Sudoeste 6 Noroeste 0 -- -- 67
2020-06-24 20:00:00 25.4 0 Calma 3 Noroeste 0 -- -- 58
2020-06-24 19:00:00 26 0 Calma 8 Norte 0 -- -- 54
2020-06-24 18:00:00 27.6 4 Norte 10 Nordeste 0 -- -- 41
2020-06-24 17:00:00 26.9 4 Nordeste 14 Nordeste 0 -- -- 45
2020-06-24 16:00:00 25.3 5 Nordeste 10 Nordeste 0 -- -- 47
2020-06-24 15:00:00 22.6 2 Norte 17 Norte 0 -- -- 60
2020-06-24 14:00:00 22.1 5 Norte 18 Nordeste 0 -- -- 57
2020-06-24 13:00:00 21 3 Nordeste 12 Sudeste 0 -- -- 67
2020-06-24 12:00:00 21.6 3 Norte 13 Sudeste 0 -- -- 66
2020-06-24 11:00:00 19.3 4 Nordeste 10 Norte 0 -- -- 78
2020-06-24 10:00:00 19.4 3 Norte 9 Oeste 0 -- -- 79
2020-06-24 09:00:00 19 0 Calma 5 Sudoeste 0 -- -- 80
2020-06-24 08:00:00 13.9 3 Oeste 9 Sur 0 -- -- 90
2020-06-24 07:00:00 12.2 0 Calma 4 Sudoeste 0 -- -- 95
2020-06-24 06:00:00 12.3 0 Calma 4 Oeste 0 -- -- 94
2020-06-24 05:00:00 12.4 0 Calma 5 Sudoeste 0 -- -- 91
2020-06-24 04:00:00 12.5 4 Sudoeste 7 Oeste 0 -- -- 84
2020-06-24 03:00:00 13.1 0 Calma 13 Sudeste 0 -- -- 77
2020-06-24 02:00:00 13.6 2 Sur 8 Noroeste 0 -- -- 74
2020-06-24 01:00:00 12.9 0 Calma 4 Oeste 0 -- -- 78
2020-06-24 00:00:00 14.1 3 Oeste 5 Oeste 0 -- -- 75
2020-06-23 23:00:00 16.7 3 Sudoeste 7 Oeste 0 -- -- 65
2020-06-23 22:00:00 21.2 3 Sudoeste 17 Oeste 0 -- -- 49
2020-06-23 21:00:00 21.7 2 Sur 7 Noroeste 0 -- -- 67
2020-06-23 20:00:00 28.3 0 Calma 10 Norte 0 -- -- 51
2020-06-23 19:00:00 30 4 Nordeste 8 Norte 0 -- -- 38
2020-06-23 18:00:00 26.2 0 Calma 8 Norte 0 -- -- 67
2020-06-23 17:00:00 27.8 2 Este 6 Norte 0 -- -- 43
2020-06-23 16:00:00 26.2 0 Calma 5 Oeste 0 -- -- 64
2020-06-23 15:00:00 29.3 3 Noroeste 9 Noroeste 0 -- -- 42
2020-06-23 14:00:00 28.3 2 Noroeste 10 Nordeste 0 -- -- 42
2020-06-23 13:00:00 27.9 4 Este 10 Nordeste 0 -- -- 43
2020-06-23 12:00:00 25.8 3 Nordeste 9 Nordeste 0 -- -- 46
2020-06-23 11:00:00 23.9 4 Este 8 Este 0 -- -- 49
2020-06-23 10:00:00 21.5 2 Sudeste 4 Sudeste 0 -- -- 57
2020-06-23 09:00:00 17.4 2 Sudeste 4 Sudeste 0 -- -- 73
2020-06-23 08:00:00 11.6 0 Calma 4 Sudoeste 0 -- -- 92
2020-06-23 07:00:00 9.3 2 Sudoeste 4 Oeste 0 -- -- 93
2020-06-23 06:00:00 9.6 2 Sudoeste 4 Sudoeste 0 -- -- 91
2020-06-23 05:00:00 10.4 2 Oeste 5 Oeste 0 -- -- 89
2020-06-23 04:00:00 10.5 3 Sudoeste 6 Sur 0 -- -- 89
2020-06-23 03:00:00 11 2 Sudoeste 5 Sudeste 0 -- -- 89
2020-06-23 02:00:00 12.2 0 Calma 4 Oeste 0 -- -- 87
2020-06-23 01:00:00 13 0 Calma 6 Sur 0 -- -- 85
2020-06-23 00:00:00 14.1 3 Sudoeste 9 Oeste 0 -- -- 81
2020-06-22 23:00:00 16 2 Oeste 3 Sudoeste 0 -- -- 79
2020-06-22 22:00:00 19.2 0 Calma 3 Oeste 0 -- -- 74
2020-06-22 21:00:00 22.6 2 Oeste 3 Sur 0 -- -- 67
2020-06-22 20:00:00 26 2 Sudeste 5 Sudeste 0 -- -- 58
2020-06-22 19:00:00 24.2 0 Calma 5 Nordeste 0 -- -- 62
2020-06-22 18:00:00 29 3 Noroeste 12 Oeste 0 -- -- 40
2020-06-22 17:00:00 29.5 3 Noroeste 10 Noroeste 0 -- -- 33
2020-06-22 16:00:00 29.6 6 Nordeste 12 Nordeste 0 -- -- 35
2020-06-22 15:00:00 29 5 Nordeste 12 Sudeste 0 -- -- 34
2020-06-22 14:00:00 27.7 6 Este 12 Nordeste 0 -- -- 36
2020-06-22 13:00:00 26.4 4 Este 10 Este 0 -- -- 40
2020-06-22 12:00:00 24.8 5 Este 10 Este 0 -- -- 42
2020-06-22 11:00:00 22.5 4 Nordeste 9 Este 0 -- -- 40
2020-06-22 10:00:00 19.5 2 Nordeste 5 Este 0 -- -- 45
2020-06-22 09:00:00 15.8 0 Calma 3 Sur 0 -- -- 59
2020-06-22 08:00:00 9.4 0 Calma 3 Oeste 0 -- -- 85
2020-06-22 07:00:00 6.9 0 Calma 4 Oeste 0 -- -- 86
2020-06-22 06:00:00 7.2 2 Sudoeste 4 Oeste 0 -- -- 84
2020-06-22 05:00:00 8.1 3 Sudoeste 4 Oeste 0 -- -- 81
2020-06-22 04:00:00 8.8 3 Oeste 5 Oeste 0 -- -- 77
2020-06-22 03:00:00 9.9 2 Sudoeste 5 Sudoeste 0 -- -- 73
2020-06-22 02:00:00 11.4 2 Oeste 6 Oeste 0 -- -- 68
2020-06-22 01:00:00 11.9 3 Sudoeste 9 Sur 0 -- -- 63
2020-06-22 00:00:00 12.7 3 Sudoeste 10 Noroeste 0 -- -- 58
2020-06-21 23:00:00 14.1 3 Sudoeste 12 Sur 0 -- -- 53
2020-06-21 22:00:00 16 3 Sudoeste 8 Sudoeste 0 -- -- 53
2020-06-21 21:00:00 20.5 3 Oeste 6 Norte 0 -- -- 48
2020-06-21 20:00:00 27.7 2 Norte 11 Norte 0 -- -- 32
2020-06-21 19:00:00 27.9 5 Noroeste 20 Oeste 0 -- -- 29
2020-06-21 18:00:00 27.9 9 Noroeste 19 Noroeste 0 -- -- 30
2020-06-21 17:00:00 28.1 9 Oeste 23 Oeste 0 -- -- 27
2020-06-21 16:00:00 27.7 8 Oeste 25 Oeste 0 -- -- 29
2020-06-21 15:00:00 27.7 6 Noroeste 21 Noroeste 0 -- -- 32
2020-06-21 14:00:00 27.3 5 Oeste 14 Sudeste 0 -- -- 32
2020-06-21 13:00:00 26.3 6 Este 14 Este 0 -- -- 36
2020-06-21 12:00:00 25 5 Nordeste 10 Este 0 -- -- 39
2020-06-21 11:00:00 22.5 3 Este 7 Norte 0 -- -- 46
2020-06-21 10:00:00 20.3 3 Este 5 Sudeste 0 -- -- 49
2020-06-21 09:00:00 16.2 2 Sudeste 5 Sur 0 -- -- 65
2020-06-21 08:00:00 9.9 0 Calma 4 Oeste 0 -- -- 86
2020-06-21 07:00:00 7.5 0 Calma 4 Sudoeste 0 -- -- 88
2020-06-21 06:00:00 8.6 3 Oeste 6 Sudoeste 0 -- -- 83
2020-06-21 05:00:00 9.1 3 Sudoeste 7 Sudoeste 0 -- -- 82
2020-06-21 04:00:00 10.2 2 Sur 12 Sudoeste 0 -- -- 77
2020-06-21 03:00:00 10.9 5 Sudoeste 11 Sudoeste 0 -- -- 72
2020-06-21 02:00:00 11.2 3 Sudoeste 6 Oeste 0 -- -- 74
2020-06-21 01:00:00 12.7 3 Oeste 9 Sur 0 -- -- 68
2020-06-21 00:00:00 13 4 Sudoeste 10 Sudoeste 0 -- -- 67
2020-06-20 23:00:00 13.9 2 Sudoeste 5 Sudoeste 0 -- -- 65
2020-06-20 22:00:00 16.2 3 Sudoeste 6 Oeste 0 -- -- 59
2020-06-20 21:00:00 20.5 3 Oeste 10 Noroeste 0 -- -- 50
2020-06-20 20:00:00 26.2 4 Oeste 17 Norte 0 -- -- 36
2020-06-20 19:00:00 27.7 6 Noroeste 20 Oeste 0 -- -- 26
2020-06-20 18:00:00 28 6 Noroeste 21 Noroeste 0 -- -- 30
2020-06-20 17:00:00 28.2 5 Noroeste 22 Noroeste 0 -- -- 30
2020-06-20 16:00:00 27.5 6 Noroeste 24 Oeste 0 -- -- 32
2020-06-20 15:00:00 26.7 7 Oeste 23 Oeste 0 -- -- 33
2020-06-20 14:00:00 25.1 8 Noroeste 26 Oeste 0 -- -- 34
2020-06-20 13:00:00 24.6 8 Noroeste 29 Oeste 0 -- -- 34
2020-06-20 12:00:00 24 7 Noroeste 22 Oeste 0 -- -- 37
2020-06-20 11:00:00 21.9 4 Nordeste 8 Este 0 -- -- 44
2020-06-20 10:00:00 19 2 Nordeste 6 Este 0 -- -- 49
2020-06-20 09:00:00 15.5 0 Calma 4 Sudeste 0 -- -- 65
2020-06-20 08:00:00 9.4 0 Calma 4 Sudoeste 0 -- -- 84
2020-06-20 07:00:00 6.9 3 Oeste 4 Sudoeste 0 -- -- 86
2020-06-20 06:00:00 7.2 0 Calma 5 Sudoeste 0 -- -- 85
2020-06-20 05:00:00 8 2 Sudoeste 5 Sudoeste 0 -- -- 81
2020-06-20 04:00:00 9.2 3 Sudoeste 8 Sur 0 -- -- 73
2020-06-20 03:00:00 10.6 3 Sudoeste 9 Sur 0 -- -- 63
2020-06-20 02:00:00 11.1 4 Sudoeste 12 Sur 0 -- -- 61
2020-06-20 01:00:00 12 3 Sudoeste 16 Sudoeste 0 -- -- 58
2020-06-20 00:00:00 11.6 3 Sudoeste 12 Oeste 0 -- -- 62
2020-06-19 23:00:00 12.8 2 Oeste 8 Noroeste 0 -- -- 61
2020-06-19 22:00:00 14.9 0 Calma 6 Sur 0 -- -- 57
2020-06-19 21:00:00 19.2 2 Noroeste 12 Oeste 0 -- -- 48
2020-06-19 20:00:00 24.8 5 Oeste 13 Oeste 0 -- -- 29
2020-06-19 19:00:00 25.1 6 Oeste 19 Noroeste 0 -- -- 30
2020-06-19 18:00:00 25.4 6 Oeste 26 Noroeste 0 -- -- 35
2020-06-19 17:00:00 25 8 Noroeste 23 Oeste 0 -- -- 35
2020-06-19 16:00:00 25.1 9 Oeste 23 Oeste 0 -- -- 37
2020-06-19 15:00:00 23.8 5 Nordeste 26 Oeste 0 -- -- 34
2020-06-19 14:00:00 23.6 7 Noroeste 19 Sudoeste 0 -- -- 40
2020-06-19 13:00:00 21.4 4 Sur 15 Este 0 -- -- 43
2020-06-19 12:00:00 22 4 Nordeste 17 Este 0 -- -- 46
2020-06-19 11:00:00 19.5 5 Este 11 Este 0 -- -- 54
2020-06-19 10:00:00 16.8 3 Nordeste 5 Nordeste 0 -- -- 55
2020-06-19 09:00:00 13.7 2 Este 4 Sudeste 0 -- -- 67
2020-06-19 08:00:00 7.8 0 Calma 2 Noroeste 0 -- -- 93
2020-06-19 07:00:00 5.4 3 Oeste 4 Sudoeste 0 -- -- 94
2020-06-19 06:00:00 6 0 Calma 4 Sudoeste 0 -- -- 91
2020-06-19 05:00:00 7.2 0 Calma 6 Sudoeste 0 -- -- 87
2020-06-19 04:00:00 7.1 0 Calma 5 Sudoeste 0 -- -- 88
2020-06-19 03:00:00 8.4 2 Sudoeste 6 Oeste 0 -- -- 85
2020-06-19 02:00:00 9.5 0 Calma 7 Sur 0 -- -- 80
2020-06-19 01:00:00 10 2 Sudoeste 4 Oeste 0 -- -- 80
2020-06-19 00:00:00 11.4 0 Calma 6 Sur 0 -- -- 77
2020-06-18 23:00:00 13.2 2 Sudoeste 6 Sur 0 -- -- 71
2020-06-18 22:00:00 15.2 3 Sudoeste 6 Noroeste 0 -- -- 64
2020-06-18 21:00:00 17.5 2 Sur 12 Nordeste 0 -- -- 57
2020-06-18 20:00:00 21.4 3 Noroeste 19 Oeste 0 -- -- 40
2020-06-18 19:00:00 23.6 6 Oeste 21 Oeste 0 -- -- 39
2020-06-18 18:00:00 23.1 5 Nordeste 19 Oeste 0 -- -- 39
2020-06-18 17:00:00 23.7 7 Noroeste 20 Oeste 0 -- -- 40
2020-06-18 16:00:00 23.1 6 Noroeste 27 Oeste 0 -- -- 40
2020-06-18 15:00:00 22.8 6 Noroeste 23 Oeste 0 -- -- 39
2020-06-18 14:00:00 21.1 4 Noroeste 17 Norte 0 -- -- 45
2020-06-18 13:00:00 20.1 3 Sudoeste 33 Nordeste 0 -- -- 50
2020-06-18 12:00:00 20.3 7 Oeste 19 Oeste 0 -- -- 44
2020-06-18 11:00:00 18.7 5 Nordeste 10 Este 0 -- -- 49
2020-06-18 10:00:00 16.8 3 Nordeste 8 Este 0 -- -- 57
2020-06-18 09:00:00 13.8 3 Este 6 Sudeste 0 -- -- 68
2020-06-18 08:00:00 7.5 0 Calma 4 Nordeste 0 -- -- 92
2020-06-18 07:00:00 5.4 0 Calma 5 Sur 0 -- -- 92
2020-06-18 06:00:00 5.7 2 Oeste 8 Sur 0 -- -- 91
2020-06-18 05:00:00 6.1 0 Calma 5 Sudoeste 0 -- -- 90
2020-06-18 04:00:00 7.4 2 Sudoeste 4 Oeste 0 -- -- 87
2020-06-18 03:00:00 9.3 0 Calma 4 Oeste 0 -- -- 82
2020-06-18 02:00:00 9.6 0 Calma 4 Oeste 0 -- -- 81
2020-06-18 01:00:00 9.8 0 Calma 6 Sudoeste 0 -- -- 79
2020-06-18 00:00:00 9.6 0 Calma 5 Sur 0 -- -- 79
2020-06-17 23:00:00 10.1 0 Calma 5 Oeste 0 -- -- 77
2020-06-17 22:00:00 11.8 0 Calma 6 Sur 0 -- -- 73
2020-06-17 21:00:00 15.1 3 Sudoeste 7 Oeste 0 -- -- 60
2020-06-17 20:00:00 19.4 3 Nordeste 15 Oeste 0 -- -- 44
2020-06-17 19:00:00 19.8 7 Oeste 23 Noroeste 0 -- -- 36
2020-06-17 18:00:00 20.6 8 Noroeste 23 Oeste 0 -- -- 37
2020-06-17 17:00:00 21.3 7 Sudoeste 17 Oeste 0 -- -- 34
2020-06-17 16:00:00 18.9 3 Nordeste 12 Este 0 -- -- 46
2020-06-17 15:00:00 18.9 6 Este 13 Nordeste 0 -- -- 47
2020-06-17 14:00:00 17.5 5 Nordeste 15 Oeste 0 -- -- 50
2020-06-17 13:00:00 17.3 4 Norte 15 Este 0 -- -- 52
2020-06-17 12:00:00 17.7 6 Este 15 Este 0 -- -- 46
2020-06-17 11:00:00 16.5 5 Sudeste 12 Este 0 -- -- 47
2020-06-17 10:00:00 15.3 4 Nordeste 11 Norte 0 -- -- 50
2020-06-17 09:00:00 12.9 3 Sudeste 5 Sudeste 0 -- -- 64
2020-06-17 08:00:00 8 0 Calma 6 Sur 0 -- -- 85
2020-06-17 07:00:00 5.8 0 Calma 5 Sudoeste 0 -- -- 89
2020-06-17 06:00:00 7.5 3 Sudoeste 11 Oeste 0 -- -- 82
2020-06-17 05:00:00 9.5 4 Oeste 14 Noroeste 0 -- -- 73
2020-06-17 04:00:00 8.9 3 Sudoeste 16 Oeste 0 -- -- 77
2020-06-17 03:00:00 9.5 3 Oeste 12 Oeste 0 -- -- 73
2020-06-17 02:00:00 10.6 2 Sudoeste 18 Oeste 0 -- -- 71
2020-06-17 01:00:00 12.8 5 Noroeste 21 Norte 0 -- -- 64
2020-06-17 00:00:00 13.2 4 Oeste 11 Sudoeste 0 -- -- 64
2020-06-16 23:00:00 13.5 2 Oeste 19 Oeste 0 -- -- 68
2020-06-16 22:00:00 14.7 6 Oeste 23 Noroeste 0 -- -- 56
2020-06-16 21:00:00 14.5 6 Oeste 19 Norte 0.2 -- -- 66
2020-06-16 20:00:00 16.5 0 Calma 6 Este 0 -- -- 69
2020-06-16 19:00:00 15.7 3 Este 10 Oeste 0.4 -- -- 70
2020-06-16 18:00:00 17.3 5 Sudoeste 40 Oeste 0 -- -- 57
2020-06-16 17:00:00 18.7 12 Oeste 33 Sudoeste 0 -- -- 48
2020-06-16 16:00:00 18.7 5 Oeste 18 Noroeste 0 -- -- 47
2020-06-16 15:00:00 17.3 6 Noroeste 26 Oeste 0 -- -- 49
2020-06-16 14:00:00 17.3 8 Oeste 22 Oeste 0 -- -- 49
2020-06-16 13:00:00 15.2 7 Oeste 24 Sudoeste 0 -- -- 59
2020-06-16 12:00:00 14.3 6 Norte 25 Sudoeste 0 -- -- 58
2020-06-16 11:00:00 14.6 4 Noroeste 12 Nordeste 0 -- -- 58
2020-06-16 10:00:00 12.8 4 Sudeste 16 Sudoeste 0 -- -- 68
2020-06-16 09:00:00 11.5 0 Calma 15 Oeste 0 -- -- 75
2020-06-16 08:00:00 10.8 2 Nordeste 24 Noroeste 0 -- -- 79
2020-06-16 07:00:00 11.1 6 Oeste 21 Noroeste 0 -- -- 73
2020-06-16 06:00:00 11.3 3 Sudoeste 23 Oeste 0 -- -- 73
2020-06-16 05:00:00 11 0 Calma 15 Oeste 0 -- -- 80
2020-06-16 04:00:00 12.3 9 Oeste 28 Oeste 0 -- -- 64
2020-06-16 03:00:00 12.8 3 Este 18 Sur 0 -- -- 67
2020-06-16 02:00:00 13.1 6 Sur 24 Sur 0 -- -- 68
2020-06-16 01:00:00 13.2 4 Sudoeste 17 Sudoeste 0 -- -- 67
2020-06-16 00:00:00 13.8 2 Sudoeste 18 Norte 0 -- -- 65
2020-06-15 23:00:00 15 3 Noroeste 18 Oeste 0 -- -- 59
2020-06-15 22:00:00 16.1 6 Nordeste 18 Noroeste 0 -- -- 56
2020-06-15 21:00:00 17.8 0 Calma 15 Sudoeste 0 -- -- 53
2020-06-15 20:00:00 19 5 Oeste 15 Oeste 0 -- -- 48
2020-06-15 19:00:00 21.3 5 Oeste 17 Oeste 0 -- -- 43
2020-06-15 18:00:00 21.1 8 Noroeste 25 Noroeste 0 -- -- 43
2020-06-15 17:00:00 22 11 Oeste 27 Oeste 0 -- -- 43
2020-06-15 16:00:00 23.1 5 Nordeste 13 Oeste 0 -- -- 45
2020-06-15 15:00:00 21.3 3 Oeste 14 Norte 0 -- -- 50
2020-06-15 14:00:00 21.1 3 Nordeste 15 Nordeste 0 -- -- 50
2020-06-15 13:00:00 20.2 4 Nordeste 22 Sudeste 0 -- -- 51
2020-06-15 12:00:00 19.5 5 Nordeste 12 Nordeste 0 -- -- 54
2020-06-15 11:00:00 17.8 4 Nordeste 13 Norte 0 -- -- 58
2020-06-15 10:00:00 15.5 2 Nordeste 6 Nordeste 0 -- -- 62
2020-06-15 09:00:00 12.5 0 Calma 3 Sudeste 0 -- -- 75
2020-06-15 08:00:00 9.6 0 Calma 4 Sur 0 -- -- 89
2020-06-15 07:00:00 8.7 0 Calma 4 Sur 0 -- -- 90
2020-06-15 06:00:00 8.8 0 Calma 3 Sudoeste 0 -- -- 89
2020-06-15 05:00:00 9 0 Calma 2 Sur 0 -- -- 87
2020-06-15 04:00:00 9.7 0 Calma 6 Sur 0 -- -- 84
2020-06-15 03:00:00 10.5 2 Sur 4 Sudeste 0 -- -- 79
2020-06-15 02:00:00 12.3 3 Sudoeste 13 Sudoeste 0 -- -- 67
2020-06-15 01:00:00 13.1 8 Oeste 21 Oeste 0 -- -- 61
2020-06-15 00:00:00 13.1 8 Sudoeste 26 Noroeste 0 -- -- 61
2020-06-14 23:00:00 13.1 2 Sudoeste 10 Oeste 0 -- -- 62
2020-06-14 22:00:00 14.6 3 Noroeste 14 Oeste 0 -- -- 63
2020-06-14 21:00:00 17.2 5 Oeste 19 Oeste 0 -- -- 45
2020-06-14 20:00:00 19 3 Norte 16 Oeste 0 -- -- 44
2020-06-14 19:00:00 20.4 3 Noroeste 18 Sudoeste 0 -- -- 39
2020-06-14 18:00:00 20.9 3 Nordeste 19 Oeste 0 -- -- 40
2020-06-14 17:00:00 20.5 9 Oeste 25 Oeste 0 -- -- 38
2020-06-14 16:00:00 19.7 7 Noroeste 20 Noroeste 0 -- -- 43
2020-06-14 15:00:00 19 6 Oeste 21 Noroeste 0 -- -- 48
2020-06-14 14:00:00 18.5 5 Noroeste 21 Oeste 0 -- -- 51
2020-06-14 13:00:00 18.7 4 Sur 14 Este 0 -- -- 45
2020-06-14 12:00:00 16 2 Oeste 15 Oeste 0 -- -- 54
2020-06-14 11:00:00 15.5 3 Noroeste 11 Este 0 -- -- 55
2020-06-14 10:00:00 14.4 3 Este 7 Este 0 -- -- 62
2020-06-14 09:00:00 10.5 0 Calma 4 Sudeste 0 -- -- 81
2020-06-14 08:00:00 6.5 0 Calma 3 Oeste 0 -- -- 95
2020-06-14 07:00:00 5 0 Calma 4 Sur 0 -- -- 93
2020-06-14 06:00:00 6.1 0 Calma 9 Oeste 0 -- -- 93
2020-06-14 05:00:00 6.5 3 Sudoeste 9 Oeste 0 -- -- 95
2020-06-14 04:00:00 6.3 0 Calma 11 Sur 0 -- -- 92
2020-06-14 03:00:00 6.6 0 Calma 7 Oeste 0 -- -- 91
2020-06-14 02:00:00 8.2 3 Sudoeste 18 Oeste 0 -- -- 85
2020-06-14 01:00:00 8.7 3 Sur 10 Oeste 0 -- -- 85
2020-06-14 00:00:00 9.1 0 Calma 7 Sur 0 -- -- 85
2020-06-13 23:00:00 10 3 Sur 9 Sudeste 0 -- -- 79
2020-06-13 22:00:00 12.6 3 Oeste 14 Norte 0 -- -- 63
2020-06-13 21:00:00 13.5 3 Oeste 9 Oeste 0 -- -- 64
2020-06-13 20:00:00 15.6 0 Calma 17 Oeste 0 -- -- 59
2020-06-13 19:00:00 18.1 7 Oeste 22 Oeste 0 -- -- 43
2020-06-13 18:00:00 18.7 7 Oeste 23 Noroeste 0 -- -- 45
2020-06-13 17:00:00 18.3 5 Sudoeste 22 Oeste 0 -- -- 42
2020-06-13 16:00:00 17.2 10 Oeste 22 Noroeste 0 -- -- 49
2020-06-13 15:00:00 15.6 5 Oeste 22 Noroeste 0 -- -- 53
2020-06-13 14:00:00 14.8 6 Noroeste 14 Sudoeste 0 -- -- 51
2020-06-13 13:00:00 13.5 3 Noroeste 21 Sudoeste 0 -- -- 62
2020-06-13 12:00:00 12.2 3 Sudeste 11 Sudeste 0 -- -- 64
2020-06-13 11:00:00 9.7 3 Sudeste 19 Oeste 0 -- -- 71
2020-06-13 10:00:00 8.4 5 Oeste 20 Oeste 0 -- -- 77
2020-06-13 09:00:00 7.8 4 Sudoeste 24 Sudoeste 0 -- -- 79
2020-06-13 08:00:00 7.6 5 Oeste 18 Sudoeste 0 -- -- 80
2020-06-13 07:00:00 7.5 5 Sudoeste 22 Oeste 0 -- -- 84
2020-06-13 06:00:00 7.7 9 Sudoeste 28 Sudoeste 0 -- -- 82
2020-06-13 05:00:00 7.7 4 Sur 21 Oeste 0 -- -- 84
2020-06-13 04:00:00 7.8 3 Sur 23 Oeste 0 -- -- 85
2020-06-13 03:00:00 7.8 9 Oeste 48 Oeste 0.4 -- -- 87
2020-06-13 02:00:00 8.1 5 Oeste 30 Sudoeste 0.4 -- -- 86
2020-06-13 01:00:00 8.5 7 Oeste 19 Sudoeste 0 -- -- 82
2020-06-13 00:00:00 8.2 5 Oeste 17 Sudoeste 0.2 -- -- 85
2020-06-12 23:00:00 8 3 Sur 21 Oeste 0.2 -- -- 88
2020-06-12 22:00:00 7.4 3 Sur 34 Oeste 0.6 -- -- 89
2020-06-12 21:00:00 8.2 13 Oeste 40 Sudoeste 0.6 -- -- 83
2020-06-12 20:00:00 7.8 5 Oeste 22 Sudoeste 3.8 -- -- 88
2020-06-12 19:00:00 8.9 7 Oeste 20 Oeste 5.4 -- -- 83
2020-06-12 18:00:00 12.2 3 Sudoeste 24 Oeste 0.4 -- -- 78
2020-06-12 17:00:00 11.6 11 Oeste 36 Oeste 0.6 -- -- 76
2020-06-12 16:00:00 15.4 8 Oeste 39 Oeste 0 -- -- 56
2020-06-12 15:00:00 14.7 16 Oeste 48 Oeste 0 -- -- 58
2020-06-12 14:00:00 12.8 13 Oeste 33 Oeste 0 -- -- 62
2020-06-12 13:00:00 11.7 12 Oeste 35 Oeste 0 -- -- 63
2020-06-12 12:00:00 11.1 10 Oeste 37 Oeste 0 -- -- 64
2020-06-12 11:00:00 9.4 10 Oeste 39 Oeste 0 -- -- 70
2020-06-12 10:00:00 7.9 8 Oeste 33 Oeste 0 -- -- 75
2020-06-12 09:00:00 7 10 Oeste 37 Oeste 0 -- -- 76
2020-06-12 08:00:00 6.6 10 Oeste 39 Oeste 0 -- -- 77
2020-06-12 07:00:00 6 12 Oeste 40 Oeste 0 -- -- 76
2020-06-12 06:00:00 5.9 7 Oeste 30 Sudoeste 0 -- -- 75
2020-06-12 05:00:00 6 9 Sudoeste 34 Sudoeste 0 -- -- 73
2020-06-12 04:00:00 6.6 8 Oeste 40 Noroeste 0 -- -- 74
2020-06-12 03:00:00 7 15 Oeste 43 Noroeste 0 -- -- 71
2020-06-12 02:00:00 7.7 15 Oeste 48 Oeste 0 -- -- 71
2020-06-12 01:00:00 8.7 15 Oeste 55 Oeste 0 -- -- 67
2020-06-12 00:00:00 9.6 22 Oeste 46 Oeste 0 -- -- 66
2020-06-11 23:00:00 10.8 16 Oeste 40 Oeste 0 -- -- 68
2020-06-11 22:00:00 11.1 13 Oeste 31 Oeste 0 -- -- 69
2020-06-11 21:00:00 11 7 Oeste 24 Oeste 1.2 -- -- 82
2020-06-11 20:00:00 12.1 6 Oeste 24 Sudoeste 1 -- -- 79
2020-06-11 19:00:00 15.2 7 Oeste 30 Oeste 0 -- -- 55
2020-06-11 18:00:00 16.5 8 Oeste 38 Sudoeste 0 -- -- 48
2020-06-11 17:00:00 17.1 9 Oeste 44 Oeste 0 -- -- 48
2020-06-11 16:00:00 16.6 12 Oeste 29 Oeste 0 -- -- 52
2020-06-11 15:00:00 16.9 8 Sudoeste 29 Oeste 0 -- -- 56
2020-06-11 14:00:00 13.6 7 Oeste 26 Oeste 0 -- -- 64
2020-06-11 13:00:00 13.7 7 Oeste 25 Oeste 0 -- -- 64
2020-06-11 12:00:00 13.4 7 Oeste 38 Oeste 0 -- -- 61
2020-06-11 11:00:00 13.5 11 Oeste 29 Norte 0 -- -- 59
2020-06-11 10:00:00 14 6 Sudoeste 18 Sur 0 -- -- 64
2020-06-11 09:00:00 14.7 5 Sudeste 16 Sur 0 -- -- 64
2020-06-11 08:00:00 11.9 3 Sudoeste 20 Oeste 0 -- -- 71
2020-06-11 07:00:00 11.4 3 Sur 19 Sur 0 -- -- 75
2020-06-11 06:00:00 11.6 3 Oeste 10 Sudeste 0 -- -- 73
2020-06-11 05:00:00 12.4 4 Sudoeste 21 Noroeste 0 -- -- 68
2020-06-11 04:00:00 13.5 4 Sudoeste 19 Oeste 0 -- -- 64
2020-06-11 03:00:00 14.2 6 Oeste 21 Sur 0 -- -- 60
2020-06-11 02:00:00 14 9 Oeste 19 Oeste 0 -- -- 56
2020-06-11 01:00:00 9.9 2 Sudoeste 7 Noroeste 0 -- -- 76
2020-06-11 00:00:00 10 0 Calma 5 Sudoeste 0 -- -- 76